createdAt,value
2018-05-31T00:01:29.759Z,10.73
2018-05-31T00:03:57.313Z,9.10
2018-05-31T00:06:24.891Z,8.40
2018-05-31T00:08:52.414Z,7.87
2018-05-31T00:11:19.941Z,8.90
2018-05-31T00:13:47.506Z,9.25
2018-05-31T00:16:15.822Z,9.00
2018-05-31T00:18:43.366Z,16.00
2018-05-31T00:21:10.962Z,8.77
2018-05-31T00:23:38.523Z,12.25
2018-05-31T00:26:06.061Z,7.93
2018-05-31T00:28:33.632Z,8.85
2018-05-31T00:31:01.283Z,8.80
2018-05-31T00:33:28.819Z,7.53
2018-05-31T00:35:57.144Z,9.80
2018-05-31T00:38:24.721Z,8.27
2018-05-31T00:40:52.264Z,7.90
2018-05-31T00:43:19.803Z,9.40
2018-05-31T00:45:47.378Z,8.68
2018-05-31T00:48:14.974Z,8.52
2018-05-31T00:50:43.302Z,8.30
2018-05-31T00:53:10.864Z,11.48
2018-05-31T00:55:50.093Z,9.82
2018-05-31T00:58:17.720Z,8.48
2018-05-31T01:00:45.242Z,11.45
2018-05-31T01:03:12.834Z,9.85
2018-05-31T01:05:40.366Z,9.18
2018-05-31T01:08:07.912Z,8.90
2018-05-31T01:10:35.480Z,8.50
2018-05-31T01:13:03.082Z,9.20
2018-05-31T01:15:31.573Z,8.55
2018-05-31T01:17:59.866Z,10.50
2018-05-31T01:20:27.420Z,9.05
2018-05-31T01:22:54.960Z,9.73
2018-05-31T01:25:22.517Z,9.43
2018-05-31T01:27:51.537Z,9.57
2018-05-31T01:30:19.845Z,9.00
2018-05-31T01:32:47.425Z,9.75
2018-05-31T01:35:14.998Z,9.25
2018-05-31T01:37:42.541Z,9.30
2018-05-31T01:40:10.062Z,9.00
2018-05-31T01:42:37.626Z,10.00
2018-05-31T01:45:05.160Z,9.27
2018-05-31T01:47:32.728Z,10.50
2018-05-31T01:50:00.305Z,9.20
2018-05-31T01:52:27.847Z,9.50
2018-05-31T01:54:55.369Z,9.65
2018-05-31T01:57:22.915Z,9.93
2018-05-31T01:59:50.470Z,10.00
2018-05-31T02:02:17.997Z,11.38
2018-05-31T02:04:45.574Z,9.13
2018-05-31T02:07:13.103Z,9.70
2018-05-31T02:09:41.401Z,10.25
2018-05-31T02:12:09.003Z,11.00
2018-05-31T02:14:36.530Z,13.95
2018-05-31T02:17:04.115Z,10.18
2018-05-31T02:19:31.646Z,10.15
2018-05-31T02:21:59.204Z,11.20
2018-05-31T02:24:26.753Z,10.43
2018-05-31T02:26:55.066Z,11.15
2018-05-31T02:29:22.611Z,10.82
2018-05-31T02:31:50.135Z,10.40
2018-05-31T02:34:17.692Z,9.98
2018-05-31T02:36:45.255Z,11.40
2018-05-31T02:39:12.801Z,11.00
2018-05-31T02:41:40.343Z,10.98
2018-05-31T02:44:07.877Z,11.65
2018-05-31T02:46:35.438Z,11.07
2018-05-31T02:49:02.987Z,11.48
2018-05-31T02:51:30.512Z,10.13
2018-05-31T02:53:58.045Z,10.95
2018-05-31T02:56:25.637Z,11.18
2018-05-31T02:58:53.172Z,11.15
2018-05-31T03:01:20.752Z,11.75
2018-05-31T03:03:48.338Z,12.70
2018-05-31T03:06:15.876Z,10.40
2018-05-31T03:08:43.427Z,10.38
2018-05-31T03:11:10.959Z,11.10
2018-05-31T03:13:38.524Z,10.77
2018-05-31T03:16:06.074Z,11.30
2018-05-31T03:18:33.617Z,11.35
2018-05-31T03:21:01.138Z,10.85
2018-05-31T03:23:29.473Z,12.73
2018-05-31T03:25:57.067Z,14.85
2018-05-31T03:28:24.647Z,12.05
2018-05-31T03:30:52.261Z,11.63
2018-05-31T03:33:19.810Z,11.75
2018-05-31T03:35:47.359Z,10.55
2018-05-31T03:38:14.910Z,11.48
2018-05-31T03:40:42.552Z,13.65
2018-05-31T03:43:10.162Z,11.80
2018-05-31T03:45:37.712Z,12.40
2018-05-31T03:48:05.245Z,11.85
2018-05-31T03:50:32.857Z,11.95
2018-05-31T03:53:00.457Z,14.80
2018-05-31T03:55:28.061Z,12.48
2018-05-31T03:57:55.663Z,12.88
2018-05-31T04:00:23.264Z,12.10
2018-05-31T04:02:50.833Z,13.57
2018-05-31T04:05:18.419Z,12.65
2018-05-31T04:07:45.978Z,13.02
2018-05-31T04:10:13.568Z,13.50
2018-05-31T04:12:41.110Z,13.25
2018-05-31T04:15:08.657Z,13.05
2018-05-31T04:17:36.274Z,13.45
2018-05-31T04:20:03.879Z,12.75
2018-05-31T04:22:31.531Z,13.13
2018-05-31T04:24:59.072Z,13.90
2018-05-31T04:27:26.620Z,12.68
2018-05-31T04:29:54.942Z,14.35
2018-05-31T04:32:22.466Z,15.32
2018-05-31T04:34:50.020Z,13.73
2018-05-31T04:37:17.585Z,13.95
2018-05-31T04:39:45.134Z,15.10
2018-05-31T04:42:13.444Z,13.75
2018-05-31T04:44:41.001Z,14.32
2018-05-31T04:47:08.612Z,13.65
2018-05-31T04:49:36.150Z,18.92
2018-05-31T04:52:03.705Z,15.85
2018-05-31T04:54:31.289Z,16.23
2018-05-31T04:56:58.822Z,16.45
2018-05-31T04:59:26.389Z,22.55
2018-05-31T05:01:53.947Z,14.63
2018-05-31T05:04:21.465Z,17.20
2018-05-31T05:06:49.154Z,15.23
2018-05-31T05:09:16.694Z,15.32
2018-05-31T05:11:45.776Z,14.10
2018-05-31T05:14:14.122Z,14.30
2018-05-31T05:16:41.703Z,15.02
2018-05-31T05:19:10.003Z,15.93
2018-05-31T05:21:37.714Z,15.45
2018-05-31T05:24:05.290Z,15.48
2018-05-31T05:26:34.661Z,15.05
2018-05-31T05:29:02.194Z,16.33
2018-05-31T05:31:29.844Z,15.50
2018-05-31T05:33:57.529Z,15.93
2018-05-31T05:36:25.106Z,15.95
2018-05-31T05:38:52.693Z,16.20
2018-05-31T05:41:20.228Z,14.77
2018-05-31T05:43:47.771Z,17.33
2018-05-31T05:46:15.387Z,15.52
2018-05-31T05:48:42.975Z,16.98
2018-05-31T05:51:10.513Z,17.35
2018-05-31T05:53:38.087Z,18.17
2018-05-31T05:56:06.463Z,15.93
2018-05-31T05:58:34.790Z,18.62
2018-05-31T06:01:02.403Z,17.62
2018-05-31T06:03:29.935Z,16.73
2018-05-31T06:05:57.471Z,17.10
2018-05-31T06:08:25.029Z,17.08
2018-05-31T06:10:52.562Z,17.05
2018-05-31T06:13:20.117Z,15.20
2018-05-31T06:15:47.645Z,15.88
2018-05-31T06:18:15.176Z,14.35
2018-05-31T06:20:42.804Z,13.05
2018-05-31T06:23:10.342Z,15.60
2018-05-31T06:25:40.835Z,14.38
2018-05-31T06:28:08.384Z,15.60
2018-05-31T06:30:35.913Z,13.07
2018-05-31T06:33:03.528Z,15.43
2018-05-31T06:35:31.173Z,17.35
2018-05-31T06:37:58.747Z,16.67
2018-05-31T06:40:26.264Z,15.70
2018-05-31T06:42:53.956Z,16.50
2018-05-31T06:45:21.507Z,15.05
2018-05-31T06:47:49.019Z,13.90
2018-05-31T06:50:18.457Z,13.98
2018-05-31T06:52:47.694Z,15.02
2018-05-31T06:55:15.670Z,14.98
2018-05-31T06:57:43.561Z,14.85
2018-05-31T07:00:11.143Z,16.83
2018-05-31T07:02:38.755Z,13.23
2018-05-31T07:05:06.287Z,14.05
2018-05-31T07:07:33.800Z,13.60
2018-05-31T07:10:01.324Z,11.12
2018-05-31T07:12:28.876Z,11.85
2018-05-31T07:14:56.634Z,11.00
2018-05-31T07:17:24.216Z,11.20
2018-05-31T07:19:51.738Z,11.02
2018-05-31T07:22:19.426Z,10.32
2018-05-31T07:24:46.986Z,13.20
2018-05-31T07:27:14.736Z,9.25
2018-05-31T07:29:42.259Z,11.88
2018-05-31T07:32:10.667Z,8.00
2018-05-31T07:34:38.205Z,22.00
2018-05-31T07:37:05.742Z,10.23
2018-05-31T07:39:33.328Z,9.70
2018-05-31T07:42:01.673Z,7.03
2018-05-31T07:44:29.186Z,9.98
2018-05-31T07:46:56.729Z,8.05
2018-05-31T07:49:25.033Z,11.15
2018-05-31T07:51:52.588Z,9.20
2018-05-31T07:54:20.155Z,8.32
2018-05-31T07:56:47.676Z,9.25
2018-05-31T07:59:15.265Z,7.85
2018-05-31T08:01:42.822Z,14.95
2018-05-31T08:04:10.806Z,9.18
2018-05-31T08:06:38.468Z,11.02
2018-05-31T08:09:05.989Z,9.80
2018-05-31T08:11:33.532Z,9.50
2018-05-31T08:14:01.062Z,8.40
2018-05-31T08:16:28.642Z,8.75
2018-05-31T08:18:56.412Z,11.93
2018-05-31T08:21:24.005Z,9.20
2018-05-31T08:23:52.290Z,9.23
2018-05-31T08:26:19.845Z,10.23
2018-05-31T08:28:47.453Z,8.55
2018-05-31T08:31:14.967Z,8.43
2018-05-31T08:33:42.533Z,9.77
2018-05-31T08:36:10.911Z,8.65
2018-05-31T08:38:38.438Z,10.70
2018-05-31T08:41:06.806Z,13.43
2018-05-31T08:43:34.372Z,18.37
2018-05-31T08:46:01.885Z,12.50
2018-05-31T08:48:29.432Z,10.05
2018-05-31T08:50:57.156Z,8.80
2018-05-31T08:53:24.736Z,11.18
2018-05-31T08:55:52.294Z,12.30
2018-05-31T08:58:20.579Z,12.18
2018-05-31T09:00:48.141Z,11.52
2018-05-31T09:03:15.747Z,9.63
2018-05-31T09:05:43.425Z,10.77
2018-05-31T09:08:11.100Z,11.10
2018-05-31T09:10:38.644Z,12.50
2018-05-31T09:13:06.236Z,9.35
2018-05-31T09:15:33.778Z,10.70
2018-05-31T09:18:01.322Z,10.40
2018-05-31T09:20:28.834Z,11.85
2018-05-31T09:22:56.418Z,11.07
2018-05-31T09:25:24.073Z,11.45
2018-05-31T09:27:51.679Z,10.70
2018-05-31T09:30:19.349Z,11.68
2018-05-31T09:32:47.002Z,11.68
2018-05-31T09:35:14.529Z,11.98
2018-05-31T09:37:42.915Z,9.68
2018-05-31T09:40:10.507Z,11.30
2018-05-31T09:42:38.357Z,11.05
2018-05-31T09:45:06.638Z,10.93
2018-05-31T09:47:34.193Z,11.73
2018-05-31T09:50:01.721Z,9.40
2018-05-31T09:52:29.331Z,10.43
2018-05-31T09:54:56.898Z,10.00
2018-05-31T09:57:24.467Z,12.02
2018-05-31T09:59:52.069Z,9.02
2018-05-31T10:02:19.593Z,10.23
2018-05-31T10:04:47.201Z,10.48
2018-05-31T10:07:14.819Z,14.07
2018-05-31T10:09:42.428Z,9.15
2018-05-31T10:12:09.958Z,8.30
2018-05-31T10:14:37.504Z,10.55
2018-05-31T10:17:05.145Z,8.38
2018-05-31T10:19:32.745Z,7.40
2018-05-31T10:22:00.302Z,8.18
2018-05-31T10:24:28.677Z,16.55
2018-05-31T10:26:56.225Z,8.93
2018-05-31T10:29:23.793Z,11.60
2018-05-31T10:31:51.486Z,14.25
2018-05-31T10:34:19.051Z,8.13
2018-05-31T10:36:46.734Z,9.10
2018-05-31T10:39:14.293Z,6.68
2018-05-31T10:41:41.838Z,8.37
2018-05-31T10:44:09.381Z,8.90
2018-05-31T10:46:36.939Z,8.30
2018-05-31T10:49:04.722Z,6.80
2018-05-31T10:51:32.270Z,11.53
2018-05-31T10:54:00.464Z,8.17
2018-05-31T10:56:28.003Z,6.63
2018-05-31T10:58:55.537Z,6.60
2018-05-31T11:01:23.852Z,7.13
2018-05-31T11:03:51.409Z,6.93
2018-05-31T11:06:18.953Z,10.13
2018-05-31T11:08:46.562Z,7.23
2018-05-31T11:11:14.092Z,6.37
2018-05-31T11:13:41.822Z,11.17
2018-05-31T11:16:10.128Z,6.10
2018-05-31T11:18:37.717Z,8.07
2018-05-31T11:21:05.242Z,5.83
2018-05-31T11:23:32.822Z,5.90
2018-05-31T11:26:00.344Z,8.00
2018-05-31T11:28:29.338Z,5.77
2018-05-31T11:30:56.869Z,6.23
2018-05-31T11:33:25.161Z,8.03
2018-05-31T11:35:53.861Z,6.47
2018-05-31T11:38:22.199Z,6.90
2018-05-31T11:40:49.754Z,5.40
2018-05-31T11:43:17.293Z,5.33
2018-05-31T11:45:44.872Z,7.90
2018-05-31T11:48:13.247Z,8.10
2018-05-31T11:50:40.796Z,6.63
2018-05-31T11:53:08.347Z,6.87
2018-05-31T11:55:35.943Z,8.43
2018-05-31T11:58:03.479Z,9.10
2018-05-31T12:00:31.055Z,7.03
2018-05-31T12:02:58.574Z,5.40
2018-05-31T12:05:27.057Z,6.93
2018-05-31T12:07:55.393Z,9.90
2018-05-31T12:10:22.889Z,6.67
2018-05-31T12:12:50.428Z,6.27
2018-05-31T12:15:17.944Z,6.17
2018-05-31T12:17:45.480Z,9.53
2018-05-31T12:20:12.997Z,7.10
2018-05-31T12:22:40.577Z,7.40
2018-05-31T12:25:08.084Z,6.63
2018-05-31T12:27:35.631Z,7.40
2018-05-31T12:30:03.219Z,8.87
2018-05-31T12:32:30.825Z,8.13
2018-05-31T12:34:58.349Z,7.63
2018-05-31T12:37:25.907Z,6.93
2018-05-31T12:39:54.349Z,7.73
2018-05-31T12:42:21.939Z,10.40
2018-05-31T12:44:49.468Z,11.33
2018-05-31T12:47:16.984Z,10.33
2018-05-31T12:49:44.620Z,19.23
2018-05-31T12:52:12.215Z,11.30
2018-05-31T12:54:39.789Z,9.07
2018-05-31T12:57:07.392Z,7.83
2018-05-31T12:59:35.628Z,8.40
2018-05-31T13:02:03.977Z,11.40
2018-05-31T13:04:31.618Z,9.40
2018-05-31T13:06:59.253Z,9.27
2018-05-31T13:09:26.848Z,8.13
2018-05-31T13:11:59.211Z,8.63
2018-05-31T13:14:26.825Z,8.67
2018-05-31T13:16:54.358Z,9.80
2018-05-31T13:19:21.958Z,8.03
2018-05-31T13:21:49.643Z,9.27
2018-05-31T13:24:17.317Z,10.80
2018-05-31T13:26:44.833Z,8.67
2018-05-31T13:29:12.582Z,10.10
2018-05-31T13:31:40.192Z,12.17
2018-05-31T13:34:07.864Z,12.97
2018-05-31T13:36:35.441Z,10.73
2018-05-31T13:39:03.052Z,13.00
2018-05-31T13:41:30.652Z,9.20
2018-05-31T13:43:58.252Z,10.73
2018-05-31T13:46:25.788Z,15.77
2018-05-31T13:48:53.363Z,9.47
2018-05-31T13:51:20.939Z,10.17
2018-05-31T13:53:48.463Z,11.07
2018-05-31T13:56:16.017Z,9.40
2018-05-31T13:58:43.647Z,9.33
2018-05-31T14:01:11.192Z,10.50
2018-05-31T14:03:38.784Z,11.47
2018-05-31T14:06:06.401Z,11.90
